createdAt,value
2019-02-11T00:00:02.054Z,99575.25
2019-02-11T00:01:19.215Z,99568.95
2019-02-11T00:02:22.720Z,99577.20
2019-02-11T00:03:26.292Z,99581.09
2019-02-11T00:04:29.799Z,99576.17
2019-02-11T00:05:33.306Z,99587.16
2019-02-11T00:06:36.779Z,99580.03
2019-02-11T00:07:40.284Z,99588.05
2019-02-11T00:08:43.870Z,99590.80
2019-02-11T00:09:47.413Z,99593.32
2019-02-11T00:10:50.913Z,99598.23
2019-02-11T00:11:54.391Z,99599.96
2019-02-11T00:12:57.896Z,99602.48
2019-02-11T00:14:01.429Z,99608.77
2019-02-11T00:15:06.150Z,99612.09
2019-02-11T00:16:09.657Z,99615.19
2019-02-11T00:17:13.196Z,99619.88
2019-02-11T00:18:16.677Z,99614.16
2019-02-11T00:19:20.196Z,99618.51
2019-02-11T00:20:23.669Z,99621.03
2019-02-11T00:21:27.172Z,99617.70
2019-02-11T00:22:30.683Z,99622.17
2019-02-11T00:23:34.221Z,99622.17
2019-02-11T00:24:37.820Z,99628.02
2019-02-11T00:25:41.341Z,99626.06
2019-02-11T00:26:44.835Z,99634.08
2019-02-11T00:27:48.324Z,99627.55
2019-02-11T00:28:51.828Z,99631.10
2019-02-11T00:29:55.344Z,99633.63
2019-02-11T00:30:58.845Z,99634.20
2019-02-11T00:32:02.338Z,99646.55
2019-02-11T00:33:05.900Z,99653.42
2019-02-11T00:34:09.399Z,99652.63
2019-02-11T00:35:13.065Z,99655.14
2019-02-11T00:36:16.550Z,99660.06
2019-02-11T00:37:20.051Z,99661.52
2019-02-11T00:38:23.532Z,99658.55
2019-02-11T00:39:27.023Z,99668.05
2019-02-11T00:40:30.911Z,99666.22
2019-02-11T00:41:34.399Z,99661.30
2019-02-11T00:42:37.897Z,99676.62
2019-02-11T00:43:41.382Z,99676.40
2019-02-11T00:44:44.893Z,99672.85
2019-02-11T00:45:48.413Z,99677.77
2019-02-11T00:46:51.931Z,99681.44
2019-02-11T00:47:55.513Z,99683.27
2019-02-11T00:48:59.016Z,99690.48
2019-02-11T00:50:02.705Z,99689.11
2019-02-11T00:51:07.726Z,99693.22
2019-02-11T00:52:11.222Z,99691.62
2019-02-11T00:53:14.719Z,99697.69
2019-02-11T00:54:18.287Z,99703.41
2019-02-11T00:55:21.780Z,99702.72
2019-02-11T00:56:25.497Z,99707.88
2019-02-11T00:57:29.056Z,99707.30
2019-02-11T00:58:32.543Z,99713.94
2019-02-11T00:59:36.032Z,99718.05
2019-02-11T01:00:39.521Z,99723.55
2019-02-11T01:01:43.102Z,99724.13
2019-02-11T01:02:46.656Z,99724.69
2019-02-11T01:03:50.157Z,99731.56
2019-02-11T01:04:53.651Z,99734.08
2019-02-11T01:05:57.145Z,99732.47
2019-02-11T01:07:00.654Z,99732.24
2019-02-11T01:08:04.148Z,99740.14
2019-02-11T01:09:07.797Z,99745.63
2019-02-11T01:10:11.623Z,99746.78
2019-02-11T01:11:15.237Z,99742.97
2019-02-11T01:12:18.799Z,99749.30
2019-02-11T01:13:27.393Z,99742.73
2019-02-11T01:14:27.498Z,99754.53
2019-02-11T01:15:31.055Z,99752.58
2019-02-11T01:16:34.561Z,99755.33
2019-02-11T01:17:38.052Z,99764.14
2019-02-11T01:18:41.519Z,99752.92
2019-02-11T01:19:45.010Z,99767.45
2019-02-11T01:20:48.577Z,99764.48
2019-02-11T01:21:52.101Z,99760.93
2019-02-11T01:22:55.601Z,99765.59
2019-02-11T01:23:59.318Z,99766.97
2019-02-11T01:25:02.812Z,99766.97
2019-02-11T01:26:06.382Z,99771.08
2019-02-11T01:27:09.937Z,99776.58
2019-02-11T01:28:13.427Z,99774.51
2019-02-11T01:29:16.916Z,99778.52
2019-02-11T01:30:20.477Z,99776.91
2019-02-11T01:31:24.000Z,99779.09
2019-02-11T01:32:27.478Z,99790.08
2019-02-11T01:33:30.977Z,99790.41
2019-02-11T01:34:34.479Z,99786.86
2019-02-11T01:35:37.951Z,99789.61
2019-02-11T01:36:41.475Z,99782.75
2019-02-11T01:37:44.956Z,99792.36
2019-02-11T01:38:48.444Z,99797.84
2019-02-11T01:39:51.970Z,99797.62
2019-02-11T01:40:55.443Z,99799.22
2019-02-11T01:41:58.982Z,99798.19
2019-02-11T01:43:02.487Z,99802.64
2019-02-11T01:44:05.963Z,99802.64
2019-02-11T01:45:11.624Z,99802.64
2019-02-11T01:46:15.072Z,99805.39
2019-02-11T01:47:18.653Z,99808.14
2019-02-11T01:48:22.177Z,99819.69
2019-02-11T01:49:25.672Z,99813.97
2019-02-11T01:50:29.248Z,99819.46
2019-02-11T01:51:32.822Z,99821.41
2019-02-11T01:52:36.327Z,99819.46
2019-02-11T01:53:39.836Z,99821.41
2019-02-11T01:54:43.387Z,99832.39
2019-02-11T01:55:46.871Z,99824.16
2019-02-11T01:56:50.453Z,99829.64
2019-02-11T01:57:53.972Z,99827.80
2019-02-11T01:58:57.479Z,99837.41
2019-02-11T02:00:00.988Z,99841.53
2019-02-11T02:01:04.540Z,99841.30
2019-02-11T02:02:08.041Z,99834.67
2019-02-11T02:03:11.544Z,99845.42
2019-02-11T02:04:15.031Z,99837.41
2019-02-11T02:05:18.612Z,99839.93
2019-02-11T02:06:22.083Z,99839.13
2019-02-11T02:07:25.592Z,99842.67
2019-02-11T02:08:29.127Z,99847.94
2019-02-11T02:09:32.666Z,99850.11
2019-02-11T02:10:36.174Z,99847.47
2019-02-11T02:11:39.652Z,99862.23
2019-02-11T02:12:43.267Z,99869.09
2019-02-11T02:13:46.805Z,99861.20
2019-02-11T02:14:50.279Z,99865.55
2019-02-11T02:15:53.824Z,99870.00
2019-02-11T02:16:57.290Z,99870.00
2019-02-11T02:18:00.836Z,99880.42
2019-02-11T02:19:04.432Z,99876.03
2019-02-11T02:20:13.760Z,99876.61
2019-02-11T02:21:17.242Z,99876.38
2019-02-11T02:22:20.744Z,99882.66
2019-02-11T02:23:24.225Z,99882.43
2019-02-11T02:24:27.813Z,99888.73
2019-02-11T02:25:31.332Z,99885.98
2019-02-11T02:26:34.816Z,99885.17
2019-02-11T02:27:38.327Z,99888.50
2019-02-11T02:28:41.798Z,99884.48
2019-02-11T02:29:45.298Z,99890.44
2019-02-11T02:30:48.806Z,99889.06
2019-02-11T02:31:52.284Z,99895.93
2019-02-11T02:32:55.805Z,99895.70
2019-02-11T02:33:59.327Z,99896.27
2019-02-11T02:35:02.819Z,99899.81
2019-02-11T02:36:06.337Z,99900.72
2019-02-11T02:37:09.822Z,99898.20
2019-02-11T02:38:13.309Z,99906.44
2019-02-11T02:39:16.844Z,99903.47
2019-02-11T02:40:20.331Z,99906.20
2019-02-11T02:41:23.802Z,99906.44
2019-02-11T02:42:27.346Z,99905.06
2019-02-11T02:43:31.028Z,99905.64
2019-02-11T02:44:34.531Z,99912.03
2019-02-11T02:45:38.036Z,99913.07
2019-02-11T02:46:41.730Z,99912.84
2019-02-11T02:47:45.361Z,99919.70
2019-02-11T02:48:48.853Z,99921.88
2019-02-11T02:49:52.456Z,99919.47
2019-02-11T02:50:56.095Z,99912.03
2019-02-11T02:51:59.595Z,99917.86
2019-02-11T02:53:03.071Z,99918.66
2019-02-11T02:54:06.599Z,99916.72
2019-02-11T02:55:10.347Z,99926.09
2019-02-11T02:56:13.836Z,99921.17
2019-02-11T02:57:17.421Z,99924.48
2019-02-11T02:58:20.970Z,99927.23
2019-02-11T02:59:24.443Z,99926.66
2019-02-11T03:00:28.109Z,99931.92
2019-02-11T03:01:31.598Z,99931.92
2019-02-11T03:02:35.174Z,99928.70
2019-02-11T03:03:38.680Z,99932.25
2019-02-11T03:04:42.156Z,99948.16
2019-02-11T03:05:45.693Z,99939.92
2019-02-11T03:06:49.320Z,99934.77
2019-02-11T03:07:52.803Z,99949.30
2019-02-11T03:08:56.315Z,99944.61
2019-02-11T03:09:59.855Z,99947.69
2019-02-11T03:11:03.491Z,99953.41
2019-02-11T03:12:06.991Z,99958.09
2019-02-11T03:13:10.608Z,99959.47
2019-02-11T03:14:14.109Z,99968.84
2019-02-11T03:15:17.621Z,99964.73
2019-02-11T03:16:21.103Z,99966.64
2019-02-11T03:17:24.596Z,99968.84
2019-02-11T03:18:28.124Z,99969.95
2019-02-11T03:19:31.638Z,99978.19
2019-02-11T03:20:35.185Z,99980.93
2019-02-11T03:21:38.662Z,99976.58
2019-02-11T03:22:42.173Z,99977.95
2019-02-11T03:23:45.688Z,99978.52
2019-02-11T03:24:49.175Z,99983.44
2019-02-11T03:25:52.710Z,99982.06
2019-02-11T03:26:56.331Z,99975.54
2019-02-11T03:27:59.871Z,99984.58
2019-02-11T03:29:03.387Z,99980.45
2019-02-11T03:30:09.468Z,99985.95
2019-02-11T03:31:13.053Z,99984.58
2019-02-11T03:32:16.529Z,99981.83
2019-02-11T03:33:20.015Z,99984.11
2019-02-11T03:34:23.572Z,99995.89
2019-02-11T03:35:27.073Z,99996.69
2019-02-11T03:36:30.596Z,99996.55
2019-02-11T03:37:34.097Z,99999.77
2019-02-11T03:38:37.651Z,100006.87
2019-02-11T03:39:41.562Z,100012.69
2019-02-11T03:40:45.055Z,100011.89
2019-02-11T03:41:48.932Z,100008.58
2019-02-11T03:42:52.461Z,100014.63
2019-02-11T03:43:57.627Z,100017.95
2019-02-11T03:45:01.461Z,100018.75
2019-02-11T03:46:05.216Z,100023.20
2019-02-11T03:47:08.723Z,100025.38
2019-02-11T03:48:12.218Z,100019.08
2019-02-11T03:49:17.837Z,100016.10
2019-02-11T03:50:21.156Z,100024.57
2019-02-11T03:51:24.733Z,100027.31
2019-02-11T03:52:28.518Z,100032.47
2019-02-11T03:53:32.076Z,100032.38
2019-02-11T03:54:35.588Z,100032.61
2019-02-11T03:55:39.155Z,100038.34
2019-02-11T03:56:42.785Z,100038.84
2019-02-11T03:57:46.382Z,100040.13
2019-02-11T03:58:50.007Z,100041.41
2019-02-11T03:59:53.508Z,100053.66
2019-02-11T04:00:57.004Z,100046.70
2019-02-11T04:02:00.496Z,100052.33
2019-02-11T04:03:04.076Z,100046.68
2019-02-11T04:04:07.639Z,100044.55
2019-02-11T04:05:11.307Z,100049.20
2019-02-11T04:06:14.893Z,100052.26
2019-02-11T04:07:18.362Z,100056.52
2019-02-11T04:08:21.897Z,100063.35
2019-02-11T04:09:25.468Z,100060.87
2019-02-11T04:10:28.953Z,100054.64
2019-02-11T04:11:32.442Z,100066.34
2019-02-11T04:12:36.001Z,100062.74
2019-02-11T04:13:39.597Z,100064.72
2019-02-11T04:14:43.100Z,100068.69
2019-02-11T04:15:46.592Z,100072.27
2019-02-11T04:16:50.084Z,100074.97
2019-02-11T04:17:53.749Z,100071.08
2019-02-11T04:18:57.279Z,100078.94
2019-02-11T04:20:00.783Z,100079.80
2019-02-11T04:21:06.201Z,100083.81
2019-02-11T04:22:09.960Z,100084.22
2019-02-11T04:23:13.543Z,100078.38
2019-02-11T04:24:17.067Z,100083.20
2019-02-11T04:25:20.582Z,100086.75
2019-02-11T04:26:24.064Z,100092.88
2019-02-11T04:27:27.684Z,100092.09
2019-02-11T04:28:31.193Z,100107.34
2019-02-11T04:29:34.810Z,100101.97
2019-02-11T04:30:38.445Z,100107.63
2019-02-11T04:31:42.001Z,100110.73
2019-02-11T04:32:45.487Z,100107.29
2019-02-11T04:33:48.981Z,100110.39
2019-02-11T04:34:52.570Z,100113.49
2019-02-11T04:35:56.154Z,100108.79
2019-02-11T04:36:59.650Z,100113.49
2019-02-11T04:38:03.201Z,100110.89
2019-02-11T04:39:06.920Z,100112.73
2019-02-11T04:40:11.668Z,100121.22
2019-02-11T04:41:15.177Z,100128.56
2019-02-11T04:42:18.801Z,100121.80
2019-02-11T04:43:22.363Z,100129.71
2019-02-11T04:44:33.858Z,100128.80
2019-02-11T04:45:31.266Z,100131.31
2019-02-11T04:46:34.756Z,100138.43
2019-02-11T04:47:38.321Z,100141.53
2019-02-11T04:48:41.812Z,100137.28
2019-02-11T04:49:45.383Z,100138.09
2019-02-11T04:50:48.939Z,100139.02
2019-02-11T04:51:52.419Z,100149.22
2019-02-11T04:52:55.952Z,100145.09
2019-02-11T04:53:59.546Z,100150.38
2019-02-11T04:55:03.037Z,100153.70
2019-02-11T04:56:06.571Z,100151.98
2019-02-11T04:57:10.125Z,100154.97
2019-02-11T04:58:13.667Z,100158.21
2019-02-11T04:59:17.209Z,100158.21
2019-02-11T05:00:20.761Z,100165.56
2019-02-11T05:01:24.347Z,100166.70
2019-02-11T05:02:27.861Z,100165.09
2019-02-11T05:03:31.414Z,100166.94
2019-02-11T05:04:34.927Z,100170.60
2019-02-11T05:05:38.551Z,100167.28
2019-02-11T05:06:42.067Z,100172.44
2019-02-11T05:07:45.636Z,100179.90
2019-02-11T05:08:49.195Z,100185.30
2019-02-11T05:09:52.794Z,100188.73
2019-02-11T05:10:56.346Z,100186.44
2019-02-11T05:11:59.827Z,100187.59
2019-02-11T05:13:03.418Z,100185.25
2019-02-11T05:14:06.980Z,100187.13
2019-02-11T05:15:11.621Z,100196.04
2019-02-11T05:16:15.269Z,100196.37
2019-02-11T05:17:18.916Z,100187.53
2019-02-11T05:18:22.512Z,100185.35
2019-02-11T05:19:26.123Z,100195.80
2019-02-11T05:20:29.699Z,100195.67
2019-02-11T05:21:33.198Z,100193.37
2019-02-11T05:22:36.973Z,100201.98
2019-02-11T05:23:40.456Z,100201.75
2019-02-11T05:24:43.962Z,100201.98
2019-02-11T05:25:47.436Z,100200.73
2019-02-11T05:26:50.947Z,100200.95
2019-02-11T05:27:54.474Z,100198.09
2019-02-11T05:28:57.964Z,100198.67
2019-02-11T05:30:01.462Z,100198.33
2019-02-11T05:31:07.769Z,100196.14
2019-02-11T05:32:11.317Z,100198.33
2019-02-11T05:33:14.911Z,100203.61
2019-02-11T05:34:18.512Z,100209.11
2019-02-11T05:35:22.153Z,100202.46
2019-02-11T05:36:25.722Z,100209.11
2019-02-11T05:37:29.273Z,100211.40
2019-02-11T05:38:32.879Z,100211.17
2019-02-11T05:39:36.440Z,100211.73
2019-02-11T05:40:39.918Z,100219.53
2019-02-11T05:41:43.572Z,100219.30
2019-02-11T05:42:47.056Z,100223.66
2019-02-11T05:43:50.663Z,100220.45
2019-02-11T05:44:54.448Z,100219.87
2019-02-11T05:45:57.990Z,100220.11
2019-02-11T05:47:01.495Z,100223.43
2019-02-11T05:48:05.128Z,100228.60
2019-02-11T05:49:08.705Z,100233.89
2019-02-11T05:50:13.193Z,100235.50
2019-02-11T05:51:16.749Z,100243.06
2019-02-11T05:52:20.254Z,100239.17
2019-02-11T05:53:23.761Z,100240.44
2019-02-11T05:54:27.270Z,100246.28
2019-02-11T05:55:30.863Z,100248.00
2019-02-11T05:56:34.340Z,100250.75
2019-02-11T05:57:37.813Z,100254.08
2019-02-11T05:58:41.332Z,100258.08
2019-02-11T05:59:44.845Z,100255.44
2019-02-11T06:00:48.353Z,100257.05
2019-02-11T06:01:51.863Z,100260.60
2019-02-11T06:02:55.338Z,100265.64
2019-02-11T06:03:58.910Z,100271.38
2019-02-11T06:05:02.421Z,100275.85
2019-02-11T06:06:05.971Z,100272.19
2019-02-11T06:07:09.549Z,100280.68
2019-02-11T06:08:13.088Z,100278.84
2019-02-11T06:09:16.591Z,100284.00
2019-02-11T06:10:20.096Z,100293.88
2019-02-11T06:11:23.658Z,100284.47
2019-02-11T06:12:27.159Z,100291.59
2019-02-11T06:13:30.639Z,100291.92
2019-02-11T06:14:34.138Z,100293.98
2019-02-11T06:15:37.675Z,100294.55
2019-02-11T06:16:41.192Z,100302.58
2019-02-11T06:17:44.693Z,100300.47
2019-02-11T06:18:48.251Z,100302.98
2019-02-11T06:19:51.756Z,100298.39
2019-02-11T06:20:55.307Z,100308.36
2019-02-11T06:21:58.802Z,100312.96
2019-02-11T06:23:02.360Z,100314.57
2019-02-11T06:24:06.004Z,100320.41
2019-02-11T06:25:09.648Z,100331.80
2019-02-11T06:26:13.239Z,100325.14
2019-02-11T06:27:16.802Z,100323.77
2019-02-11T06:28:20.354Z,100336.66
2019-02-11T06:29:23.922Z,100333.91
2019-02-11T06:30:27.497Z,100336.09
2019-02-11T06:31:31.026Z,100336.09
2019-02-11T06:32:34.512Z,100338.27
2019-02-11T06:33:38.016Z,100341.13
2019-02-11T06:34:41.507Z,100343.54
2019-02-11T06:35:45.009Z,100348.31
2019-02-11T06:36:48.504Z,100338.20
2019-02-11T06:37:52.024Z,100341.30
2019-02-11T06:38:55.499Z,100347.38
2019-02-11T06:39:58.993Z,100346.33
2019-02-11T06:41:02.513Z,100347.70
2019-02-11T06:42:06.041Z,100347.70
2019-02-11T06:43:09.541Z,100362.52
2019-02-11T06:44:13.107Z,100361.38
2019-02-11T06:45:16.686Z,100370.34
2019-02-11T06:46:20.173Z,100375.27
2019-02-11T06:47:23.695Z,100386.78
2019-02-11T06:48:27.247Z,100386.22
2019-02-11T06:49:30.741Z,100389.54
2019-02-11T06:50:34.258Z,100394.55
2019-02-11T06:51:37.752Z,100400.39
2019-02-11T06:52:41.349Z,100399.81
2019-02-11T06:53:44.886Z,100408.98
2019-02-11T06:54:48.483Z,100401.30
2019-02-11T06:55:52.002Z,100406.80
2019-02-11T06:56:55.653Z,100418.95
2019-02-11T06:57:59.256Z,100421.90
2019-02-11T06:59:02.837Z,100429.73
2019-02-11T07:00:13.906Z,100431.20
2019-02-11T07:01:17.396Z,100425.45
2019-02-11T07:02:21.035Z,100429.25
2019-02-11T07:03:24.618Z,100433.63
2019-02-11T07:04:28.098Z,100435.23
2019-02-11T07:05:31.595Z,100435.14
2019-02-11T07:06:35.098Z,100431.58
2019-02-11T07:07:38.660Z,100439.59
2019-02-11T07:08:42.249Z,100444.63
2019-02-11T07:09:45.747Z,100444.39
2019-02-11T07:10:55.510Z,100449.57
2019-02-11T07:11:54.513Z,100446.81
2019-02-11T07:12:58.011Z,100451.52
2019-02-11T07:14:01.534Z,100455.41
2019-02-11T07:15:07.804Z,100459.30
2019-02-11T07:16:11.301Z,100455.17
2019-02-11T07:17:14.780Z,100457.21
2019-02-11T07:18:18.349Z,100456.73
2019-02-11T07:19:21.935Z,100457.37
2019-02-11T07:20:25.457Z,100459.08
2019-02-11T07:21:28.960Z,100463.20
2019-02-11T07:22:32.460Z,100475.27
2019-02-11T07:23:35.958Z,100474.78
2019-02-11T07:24:39.485Z,100485.23
2019-02-11T07:25:43.052Z,100484.42
2019-02-11T07:26:46.548Z,100487.41
2019-02-11T07:27:50.051Z,100484.90
2019-02-11T07:28:53.544Z,100489.12
2019-02-11T07:29:57.083Z,100489.69
2019-02-11T07:31:00.749Z,100495.20
2019-02-11T07:32:04.326Z,100493.34
2019-02-11T07:33:07.808Z,100497.23
2019-02-11T07:34:11.357Z,100511.09
2019-02-11T07:35:14.985Z,100509.47
2019-02-11T07:36:18.482Z,100510.04
2019-02-11T07:37:22.060Z,100511.42
2019-02-11T07:38:25.654Z,100516.11
2019-02-11T07:39:29.174Z,100515.30
2019-02-11T07:40:32.717Z,100517.25
2019-02-11T07:41:40.621Z,100517.73
2019-02-11T07:42:51.776Z,100517.73
2019-02-11T07:43:56.921Z,100525.47
2019-02-11T07:45:00.624Z,100526.19
2019-02-11T07:46:05.894Z,100526.94
2019-02-11T07:47:09.377Z,100531.30
2019-02-11T07:48:12.894Z,100530.41
2019-02-11T07:49:16.447Z,100533.39
2019-02-11T07:50:19.973Z,100532.48
2019-02-11T07:51:23.559Z,100546.50
2019-02-11T07:52:27.314Z,100544.64
2019-02-11T07:53:30.797Z,100535.81
2019-02-11T07:54:34.356Z,100541.65
2019-02-11T07:55:37.869Z,100536.14
2019-02-11T07:56:41.372Z,100544.50
2019-02-11T07:57:44.858Z,100547.01
2019-02-11T07:58:48.409Z,100554.46
2019-02-11T07:59:51.987Z,100552.81
2019-02-11T08:00:55.510Z,100555.00
2019-02-11T08:01:59.067Z,100554.94
2019-02-11T08:03:02.589Z,100555.17
2019-02-11T08:04:06.072Z,100551.61
2019-02-11T08:05:09.948Z,100560.11
2019-02-11T08:06:13.534Z,100552.91
2019-02-11T08:07:17.038Z,100557.27
2019-02-11T08:08:20.538Z,100561.73
2019-02-11T08:09:24.073Z,100566.66
2019-02-11T08:10:27.594Z,100568.05
2019-02-11T08:11:31.136Z,100565.05
2019-02-11T08:12:34.704Z,100570.80
2019-02-11T08:13:38.207Z,100570.80
2019-02-11T08:14:41.784Z,100566.52
2019-02-11T08:15:45.348Z,100574.69
2019-02-11T08:16:48.868Z,100575.34
2019-02-11T08:17:52.440Z,100569.60
2019-02-11T08:18:56.090Z,100579.72
2019-02-11T08:19:59.572Z,100583.03
2019-02-11T08:21:03.221Z,100577.44
2019-02-11T08:22:06.756Z,100593.95
2019-02-11T08:23:13.576Z,100585.70
2019-02-11T08:24:15.613Z,100584.56
2019-02-11T08:25:19.166Z,100589.73
2019-02-11T08:26:22.654Z,100592.81
2019-02-11T08:27:26.204Z,100598.89
2019-02-11T08:28:29.699Z,100601.31
2019-02-11T08:29:33.207Z,100603.59
2019-02-11T08:30:36.951Z,100604.97
2019-02-11T08:31:40.567Z,100613.23
2019-02-11T08:32:44.098Z,100612.75
2019-02-11T08:33:47.646Z,100610.00
2019-02-11T08:34:51.121Z,100610.89
2019-02-11T08:35:54.626Z,100615.31
2019-02-11T08:36:58.111Z,100615.65
2019-02-11T08:38:01.634Z,100632.16
2019-02-11T08:39:07.244Z,100629.89
2019-02-11T08:40:10.947Z,100639.53
2019-02-11T08:41:14.521Z,100642.28
2019-02-11T08:42:17.988Z,100640.09
2019-02-11T08:43:21.558Z,100646.92
2019-02-11T08:44:25.077Z,100644.41
2019-02-11T08:45:28.777Z,100646.27
2019-02-11T08:46:32.427Z,100655.90
2019-02-11T08:47:35.924Z,100653.72
2019-02-11T08:48:39.428Z,100659.45
2019-02-11T08:49:43.005Z,100657.27
2019-02-11T08:50:46.481Z,100652.09
2019-02-11T08:51:49.958Z,100650.23
2019-02-11T08:52:53.454Z,100655.48
2019-02-11T08:53:57.020Z,100655.66
2019-02-11T08:55:00.541Z,100655.17
2019-02-11T08:56:04.032Z,100651.34
2019-02-11T08:57:07.541Z,100655.23
2019-02-11T08:58:11.069Z,100654.42
2019-02-11T08:59:14.572Z,100660.17
2019-02-11T09:00:18.051Z,100669.00
2019-02-11T09:01:21.554Z,100664.30
2019-02-11T09:02:25.101Z,100669.19
2019-02-11T09:03:28.746Z,100674.45
2019-02-11T09:04:32.335Z,100681.33
2019-02-11T09:05:35.892Z,100678.06
2019-02-11T09:06:39.405Z,100677.50
2019-02-11T09:07:42.938Z,100684.14
2019-02-11T09:08:46.526Z,100686.66
2019-02-11T09:09:50.036Z,100689.59
2019-02-11T09:10:53.638Z,100685.22
2019-02-11T09:11:57.155Z,100684.14
2019-02-11T09:13:00.717Z,100690.45
2019-02-11T09:14:04.358Z,100688.51
2019-02-11T09:15:10.702Z,100687.45
2019-02-11T09:16:14.182Z,100684.14
2019-02-11T09:17:17.745Z,100685.27
2019-02-11T09:18:21.322Z,100688.84
2019-02-11T09:19:24.895Z,100688.35
2019-02-11T09:20:28.649Z,100693.53
2019-02-11T09:21:32.277Z,100692.10
2019-02-11T09:22:35.850Z,100688.84
2019-02-11T09:23:39.376Z,100700.84
2019-02-11T09:24:42.929Z,100700.84
2019-02-11T09:25:49.252Z,100703.59
2019-02-11T09:26:52.831Z,100705.30
2019-02-11T09:27:56.305Z,100709.72
2019-02-11T09:28:59.809Z,100708.91
2019-02-11T09:30:04.009Z,100708.91
2019-02-11T09:31:07.625Z,100714.75
2019-02-11T09:32:11.200Z,100714.27
2019-02-11T09:33:14.747Z,100723.66
2019-02-11T09:34:18.300Z,100721.71
2019-02-11T09:35:21.898Z,100728.03
2019-02-11T09:36:25.376Z,100723.89
2019-02-11T09:37:29.038Z,100723.33
2019-02-11T09:38:32.552Z,100729.89
2019-02-11T09:39:36.227Z,100734.25
2019-02-11T09:40:39.734Z,100738.90
2019-02-11T09:41:43.301Z,100733.39
2019-02-11T09:42:46.848Z,100739.20
2019-02-11T09:43:50.363Z,100746.08
2019-02-11T09:44:53.988Z,100736.77
2019-02-11T09:46:03.724Z,100746.64
2019-02-11T09:47:03.167Z,100748.83
2019-02-11T09:48:06.721Z,100748.02
2019-02-11T09:49:10.231Z,100757.41
2019-02-11T09:50:16.707Z,100755.80
2019-02-11T09:51:21.562Z,100754.50
2019-02-11T09:52:25.076Z,100764.70
2019-02-11T09:53:28.631Z,100760.33
2019-02-11T09:54:32.138Z,100764.46
2019-02-11T09:55:35.790Z,100771.34
2019-02-11T09:56:39.713Z,100767.78
2019-02-11T09:57:43.279Z,100770.77
2019-02-11T09:58:46.894Z,100772.87
2019-02-11T09:59:50.372Z,100771.17
2019-02-11T10:00:53.981Z,100772.31
2019-02-11T10:01:57.531Z,100776.44
2019-02-11T10:03:01.054Z,100769.80
2019-02-11T10:04:04.871Z,100782.52
2019-02-11T10:05:08.418Z,100778.70
2019-02-11T10:06:11.930Z,100782.27
2019-02-11T10:07:15.427Z,100778.14
2019-02-11T10:08:19.148Z,100785.59
2019-02-11T10:09:22.661Z,100781.46
2019-02-11T10:10:26.202Z,100782.84
2019-02-11T10:11:29.717Z,100779.92
2019-02-11T10:12:33.319Z,100785.43
2019-02-11T10:13:36.864Z,100796.11
2019-02-11T10:14:40.387Z,100800.24
2019-02-11T10:15:43.863Z,100806.23
2019-02-11T10:16:47.355Z,100803.48
2019-02-11T10:17:50.958Z,100804.30
2019-02-11T10:18:54.505Z,100809.47
2019-02-11T10:19:58.014Z,100815.47
2019-02-11T10:21:01.591Z,100810.28
2019-02-11T10:22:05.213Z,100809.47
2019-02-11T10:23:08.749Z,100816.36
2019-02-11T10:24:12.226Z,100823.23
2019-02-11T10:25:18.585Z,100813.36
2019-02-11T10:26:22.098Z,100815.88
2019-02-11T10:27:25.587Z,100822.19
2019-02-11T10:28:29.119Z,100825.83
2019-02-11T10:29:32.706Z,100828.02
2019-02-11T10:30:36.596Z,100831.90
2019-02-11T10:31:40.193Z,100833.03
2019-02-11T10:32:43.879Z,100834.41
2019-02-11T10:33:47.383Z,100835.46
2019-02-11T10:34:50.962Z,100838.45
2019-02-11T10:35:54.469Z,100843.64
2019-02-11T10:36:57.962Z,100842.59
2019-02-11T10:38:01.623Z,100846.39
2019-02-11T10:39:06.470Z,100838.13
2019-02-11T10:40:11.903Z,100847.53
2019-02-11T10:41:15.395Z,100836.52
2019-02-11T10:42:19.048Z,100849.14
2019-02-11T10:43:22.603Z,100850.84
2019-02-11T10:44:26.189Z,100844.28
2019-02-11T10:45:36.472Z,100854.48
2019-02-11T10:46:35.244Z,100848.17
2019-02-11T10:47:40.079Z,100853.67
2019-02-11T10:48:43.641Z,100845.98
2019-02-11T10:49:47.224Z,100847.44
2019-02-11T10:50:50.795Z,100847.44
2019-02-11T10:51:54.310Z,100847.20
2019-02-11T10:52:57.793Z,100850.92
2019-02-11T10:54:01.396Z,100849.55
2019-02-11T10:55:10.264Z,100848.98
2019-02-11T10:56:13.758Z,100847.92
2019-02-11T10:57:17.396Z,100846.95
2019-02-11T10:58:20.886Z,100849.95
2019-02-11T10:59:24.451Z,100857.16
2019-02-11T11:00:28.104Z,100850.28
2019-02-11T11:01:31.658Z,100860.16
2019-02-11T11:02:35.167Z,100862.09
2019-02-11T11:03:38.766Z,100854.16
2019-02-11T11:04:42.387Z,100860.48
2019-02-11T11:05:46.079Z,100859.67
2019-02-11T11:06:49.708Z,100869.06
2019-02-11T11:07:53.345Z,100881.20
2019-02-11T11:08:56.843Z,100868.57
2019-02-11T11:10:00.350Z,100870.83
2019-02-11T11:11:03.934Z,100870.02
2019-02-11T11:12:07.857Z,100868.89
2019-02-11T11:13:11.423Z,100870.83
2019-02-11T11:14:14.928Z,100874.08
2019-02-11T11:15:19.272Z,100872.70
2019-02-11T11:16:29.461Z,100866.88
2019-02-11T11:17:28.076Z,100870.68
2019-02-11T11:18:31.625Z,100869.55
2019-02-11T11:19:35.117Z,100877.31
2019-02-11T11:20:38.741Z,100876.42
2019-02-11T11:21:42.329Z,100877.56
2019-02-11T11:22:46.361Z,100878.69
2019-02-11T11:23:49.914Z,100878.20
2019-02-11T11:24:53.478Z,100882.33
2019-02-11T11:25:56.983Z,100883.22
2019-02-11T11:27:00.632Z,100884.92
2019-02-11T11:28:04.298Z,100887.10
2019-02-11T11:29:07.781Z,100888.52
2019-02-11T11:30:17.065Z,100898.11
2019-02-11T11:31:20.632Z,100896.49
2019-02-11T11:32:24.212Z,100896.73
2019-02-11T11:33:27.775Z,100893.42
2019-02-11T11:34:31.279Z,100898.60
2019-02-11T11:35:34.836Z,100900.47
2019-02-11T11:36:38.333Z,100902.09
2019-02-11T11:37:41.841Z,100896.09
2019-02-11T11:38:45.411Z,100896.91
2019-02-11T11:39:48.914Z,100901.36
2019-02-11T11:40:52.509Z,100902.16
2019-02-11T11:41:56.229Z,100898.60
2019-02-11T11:42:59.719Z,100901.36
2019-02-11T11:44:03.208Z,100899.17
2019-02-11T11:45:09.904Z,100905.23
2019-02-11T11:46:13.530Z,100913.30
2019-02-11T11:47:17.127Z,100914.67
2019-02-11T11:48:20.617Z,100911.63
2019-02-11T11:49:24.183Z,100915.23
2019-02-11T11:50:27.671Z,100919.08
2019-02-11T11:51:31.257Z,100924.02
2019-02-11T11:52:34.759Z,100918.52
2019-02-11T11:53:38.246Z,100929.52
2019-02-11T11:54:41.803Z,100929.77
2019-02-11T11:55:45.381Z,100925.80
2019-02-11T11:56:49.115Z,100931.63
2019-02-11T11:57:52.769Z,100931.87
2019-02-11T11:58:56.266Z,100933.25
2019-02-11T11:59:59.890Z,100931.63
2019-02-11T12:01:03.796Z,100934.95
2019-02-11T12:02:07.726Z,100938.27
2019-02-11T12:03:11.240Z,100939.97
2019-02-11T12:04:14.871Z,100938.02
2019-02-11T12:05:18.428Z,100937.50
2019-02-11T12:06:25.415Z,100945.52
2019-02-11T12:07:27.210Z,100950.45
2019-02-11T12:08:30.724Z,100956.52
2019-02-11T12:09:34.293Z,100948.52
2019-02-11T12:10:37.773Z,100955.67
2019-02-11T12:11:41.264Z,100953.41
2019-02-11T12:12:44.836Z,100958.91